Time;durP1;ratioP1;P1;durP2;ratioP2;P2;SDS_P1;SDS_P2;PMS_P1;PMS_P2;Temp;Humidity;BMP_temperature;BMP_pressure;BME280_temperature;BME280_humidity;BME280_pressure;Samples;Min_cycle;Max_cycle;Signal;HPM_P1;HPM_P2
2023/04/30 00:00:30;;;;;;;9.38;5.50;;;;;;;22.79;37.72;99515.81;4273729;33;34130;-66
2023/04/30 00:02:57;;;;;;;9.65;5.35;;;;;;;22.79;37.72;99522.06;4273837;33;35062;-62
2023/04/30 00:05:25;;;;;;;9.15;5.65;;;;;;;22.78;37.73;99519.59;4273825;33;33816;-66
2023/04/30 00:07:52;;;;;;;8.77;5.22;;;;;;;22.79;37.78;99524.78;4273713;33;34677;-66
2023/04/30 00:10:20;;;;;;;10.48;5.25;;;;;;;22.78;37.75;99519.59;4275374;33;34227;-66
2023/04/30 00:12:48;;;;;;;8.27;4.65;;;;;;;22.77;37.78;99520.66;4275300;33;34244;-66
2023/04/30 00:15:15;;;;;;;7.78;5.18;;;;;;;22.77;37.82;99523.38;4275224;33;33861;-61
2023/04/30 00:17:43;;;;;;;8.95;4.95;;;;;;;22.77;37.82;99523.38;4275432;33;34653;-66
2023/04/30 00:20:11;;;;;;;8.75;5.20;;;;;;;22.77;37.83;99517.94;4275595;33;33704;-65
2023/04/30 00:22:38;;;;;;;10.18;5.45;;;;;;;22.78;37.82;99525.03;4274989;33;33941;-66
2023/04/30 00:25:06;;;;;;;7.45;5.12;;;;;;;22.79;37.83;99529.41;4275226;33;34686;-65
2023/04/30 00:27:34;;;;;;;8.93;4.85;;;;;;;22.79;37.82;99521.25;4274083;33;34617;-65
2023/04/30 00:30:01;;;;;;;8.55;5.20;;;;;;;22.77;37.78;99521.47;4275043;33;34027;-64
2023/04/30 00:32:30;;;;;;;8.30;5.28;;;;;;;22.79;37.78;99519.34;4275303;33;34343;-66
2023/04/30 00:34:58;;;;;;;7.05;4.78;;;;;;;22.79;37.78;99522.06;4275442;33;33812;-65
2023/04/30 00:37:25;;;;;;;10.05;5.40;;;;;;;22.78;37.82;99523.13;4275016;33;33777;-62
2023/04/30 00:39:53;;;;;;;7.82;5.00;;;;;;;22.79;37.82;99527.50;4274965;33;33857;-64
2023/04/30 00:42:21;;;;;;;7.37;4.72;;;;;;;22.80;37.80;99531.91;4275233;33;34457;-61
2023/04/30 00:44:48;;;;;;;8.30;4.87;;;;;;;22.77;37.84;99521.47;4275054;33;33717;-63
2023/04/30 00:47:16;;;;;;;8.07;4.68;;;;;;;22.78;37.91;99525.84;4275225;33;34211;-63
2023/04/30 00:49:44;;;;;;;9.32;4.85;;;;;;;22.77;37.93;99518.75;4262425;33;34012;-66
2023/04/30 00:52:12;;;;;;;8.50;4.82;;;;;;;22.77;37.97;99521.47;4275012;33;34431;-62
2023/04/30 00:54:40;;;;;;;7.82;5.00;;;;;;;22.78;37.93;99512.25;4275043;33;34457;-63
2023/04/30 00:57:08;;;;;;;8.20;4.55;;;;;;;22.78;37.98;99512.25;4275195;33;33975;-63
2023/04/30 00:59:36;;;;;;;8.25;4.68;;;;;;;22.78;38.00;99511.44;4274980;33;33883;-65
2023/04/30 01:02:03;;;;;;;7.25;4.65;;;;;;;22.77;38.02;99507.88;4275269;33;34787;-64
2023/04/30 01:04:32;;;;;;;11.15;4.40;;;;;;;22.77;38.02;99507.06;4274819;33;33785;-65
2023/04/30 01:07:01;;;;;;;12.43;4.75;;;;;;;22.76;38.06;99508.13;4262376;33;33703;-67
2023/04/30 01:09:28;;;;;;;8.45;4.10;;;;;;;22.75;38.08;99506.44;4275085;33;34035;-65
2023/04/30 01:12:24;;;;;;;7.32;4.70;;;;;;;22.77;38.09;99515.22;4250051;33;34125;-63
2023/04/30 01:14:57;;;;;;;7.50;4.55;;;;;;;22.77;38.11;99507.06;4274958;33;33749;-65
2023/04/30 01:17:34;;;;;;;7.72;4.35;;;;;;;22.77;38.15;99515.22;4274883;33;34838;-62
2023/04/30 01:20:02;;;;;;;7.72;4.37;;;;;;;22.76;38.17;99508.94;4273184;33;34515;-65
2023/04/30 01:22:36;;;;;;;8.20;4.25;;;;;;;22.76;38.07;99510.84;4272913;33;34984;-64
2023/04/30 01:25:31;;;;;;;8.57;4.40;;;;;;;22.76;38.08;99508.13;4272916;33;33373;-66
2023/04/30 01:28:02;;;;;;;10.32;4.40;;;;;;;22.78;38.02;99509.53;4272920;33;33565;-67
2023/04/30 01:30:30;;;;;;;11.80;5.32;;;;;;;22.74;38.09;99504.78;4272843;33;34144;-67
2023/04/30 01:32:58;;;;;;;8.02;4.70;;;;;;;22.74;38.17;99512.94;4272925;33;33942;-66
2023/04/30 01:36:01;;;;;;;6.57;4.12;;;;;;;22.75;38.17;99514.59;4274244;33;33316;-67
2023/04/30 01:38:44;;;;;;;9.65;4.60;;;;;;;22.77;38.16;99515.22;4274515;33;33919;-63
2023/04/30 01:41:20;;;;;;;9.43;4.50;;;;;;;22.77;38.17;99512.50;4276711;33;33758;-66
2023/04/30 01:43:58;;;;;;;7.57;4.65;;;;;;;22.75;38.20;99511.88;4289327;33;33689;-64
2023/04/30 01:46:29;;;;;;;6.68;4.53;;;;;;;22.74;38.23;99507.50;4289062;33;33744;-61
2023/04/30 01:49:01;;;;;;;7.05;4.20;;;;;;;22.75;38.28;99514.59;4276523;33;33812;-65
2023/04/30 01:51:41;;;;;;;6.97;4.32;;;;;;;22.75;38.24;99518.13;4289472;33;34931;-66
2023/04/30 01:54:17;;;;;;;10.25;4.72;;;;;;;22.77;38.28;99517.94;4276141;33;34255;-64
2023/04/30 01:56:48;;;;;;;6.57;4.22;;;;;;;22.74;38.31;99518.38;4289242;33;34509;-64
2023/04/30 01:59:16;;;;;;;8.57;4.32;;;;;;;22.74;38.33;99516.47;4264710;33;34037;-61
2023/04/30 02:01:43;;;;;;;10.60;4.87;;;;;;;22.76;38.33;99524.44;4289328;33;33626;-59
2023/04/30 02:04:11;;;;;;;8.30;3.95;;;;;;;22.75;38.33;99529.03;4264296;33;34219;-61
2023/04/30 02:06:40;;;;;;;10.27;4.62;;;;;;;22.75;38.36;99522.75;4287478;33;33776;-62
2023/04/30 02:09:09;;;;;;;6.55;3.75;;;;;;;22.75;38.36;99522.75;4274748;33;34016;-61
2023/04/30 02:11:37;;;;;;;10.45;5.05;;;;;;;22.75;38.23;99525.47;4274751;33;34088;-61
2023/04/30 02:14:05;;;;;;;9.90;4.60;;;;;;;22.76;38.20;99519.00;4274520;33;34372;-63
2023/04/30 02:16:32;;;;;;;9.65;4.68;;;;;;;22.75;38.21;99520.84;4274768;33;33774;-66
2023/04/30 02:19:00;;;;;;;7.93;4.15;;;;;;;22.76;38.21;99521.72;4274309;33;33860;-65
2023/04/30 02:21:28;;;;;;;6.87;4.37;;;;;;;22.74;38.24;99527.38;4287224;33;34111;-66
2023/04/30 02:23:55;;;;;;;7.20;4.25;;;;;;;22.75;38.25;99523.56;4289242;33;34342;-63
2023/04/30 02:26:23;;;;;;;8.00;4.20;;;;;;;22.74;38.29;99521.94;4288937;33;33583;-63
2023/04/30 02:28:50;;;;;;;6.62;4.25;;;;;;;22.74;38.35;99519.19;4288678;33;34611;-65
2023/04/30 02:31:18;;;;;;;6.30;4.32;;;;;;;22.75;38.30;99529.03;4288465;33;34927;-63
2023/04/30 02:33:46;;;;;;;8.02;4.28;;;;;;;22.76;38.23;99522.53;4288224;33;34209;-65
2023/04/30 02:36:13;;;;;;;7.10;4.30;;;;;;;22.77;38.23;99520.66;4288716;33;34314;-65
2023/04/30 02:38:41;;;;;;;9.43;3.95;;;;;;;22.78;38.20;99527.75;4288917;33;33895;-66
2023/04/30 02:41:08;;;;;;;6.95;3.90;;;;;;;22.79;38.17;99534.84;4288896;33;35135;-65
2023/04/30 02:43:36;;;;;;;8.13;4.25;;;;;;;22.79;38.19;99534.84;4288730;33;34084;-66
2023/04/30 02:46:03;;;;;;;8.18;4.07;;;;;;;22.79;38.17;99532.12;4288784;33;34525;-63
2023/04/30 02:48:31;;;;;;;11.35;4.47;;;;;;;22.78;38.21;99528.56;4288815;33;34893;-66
2023/04/30 02:50:58;;;;;;;6.72;3.55;;;;;;;22.77;38.23;99529.63;4288649;33;34763;-66
2023/04/30 02:53:26;;;;;;;6.53;3.90;;;;;;;22.77;38.25;99531.53;4287625;33;34926;-66
2023/04/30 02:55:54;;;;;;;7.22;3.90;;;;;;;22.78;38.28;99536.72;4288845;33;33578;-66
2023/04/30 02:58:21;;;;;;;6.35;3.92;;;;;;;22.77;38.33;99539.69;4288632;33;34112;-66
2023/04/30 03:00:49;;;;;;;8.75;4.30;;;;;;;22.78;38.29;99542.16;4288802;33;33649;-66
2023/04/30 03:03:17;;;;;;;6.35;4.15;;;;;;;22.77;38.35;99534.25;4288517;33;34107;-63
2023/04/30 03:05:44;;;;;;;8.82;4.10;;;;;;;22.77;38.43;99550.56;4288442;33;34435;-66
2023/04/30 03:08:12;;;;;;;8.45;3.70;;;;;;;22.77;38.45;99545.13;4288736;33;34881;-62
2023/04/30 03:10:40;;;;;;;5.90;3.70;;;;;;;22.77;38.44;99537.78;4288766;33;34060;-65
2023/04/30 03:13:07;;;;;;;7.15;4.20;;;;;;;22.76;38.42;99538.88;4288431;33;34434;-66
2023/04/30 03:15:35;;;;;;;6.12;3.83;;;;;;;22.77;38.43;99545.13;4288704;33;33225;-66
2023/04/30 03:18:03;;;;;;;9.23;4.15;;;;;;;22.76;38.40;99541.59;4288631;33;34705;-62
2023/04/30 03:20:30;;;;;;;7.00;3.97;;;;;;;22.77;38.34;99534.25;4288469;33;34185;-66
2023/04/30 03:22:58;;;;;;;7.45;3.87;;;;;;;22.77;38.32;99536.97;4288582;33;34238;-65
2023/04/30 03:25:25;;;;;;;8.30;4.00;;;;;;;22.78;38.34;99544.06;4288870;33;35053;-61
2023/04/30 03:27:53;;;;;;;8.10;4.05;;;;;;;22.77;38.33;99543.25;4288444;33;34578;-66
2023/04/30 03:30:20;;;;;;;6.47;3.45;;;;;;;22.77;38.33;99548.69;4288483;33;34191;-61
2023/04/30 03:32:48;;;;;;;8.23;4.30;;;;;;;22.79;38.33;99546.53;4288580;33;34821;-65
2023/04/30 03:35:16;;;;;;;7.85;3.95;;;;;;;22.80;38.31;99544.66;4277642;33;34567;-64
2023/04/30 03:37:43;;;;;;;6.72;4.18;;;;;;;22.79;38.31;99540.28;4274218;33;33587;-65
2023/04/30 03:40:11;;;;;;;6.28;4.05;;;;;;;22.78;38.33;99544.91;4274278;33;34951;-64
2023/04/30 03:42:39;;;;;;;8.07;4.12;;;;;;;22.78;38.37;99547.62;4273686;33;34168;-62
2023/04/30 03:45:07;;;;;;;7.03;3.90;;;;;;;22.78;38.39;99547.62;4273959;33;33164;-65
2023/04/30 03:47:34;;;;;;;8.20;3.85;;;;;;;22.77;38.40;99542.41;4274312;33;34028;-63
2023/04/30 03:50:02;;;;;;;6.68;3.60;;;;;;;22.78;38.44;99549.50;4273852;33;33885;-66
2023/04/30 03:52:30;;;;;;;9.07;4.20;;;;;;;22.77;38.50;99553.28;4274099;33;34012;-64
2023/04/30 03:54:58;;;;;;;6.30;4.00;;;;;;;22.77;38.51;99539.69;4274050;33;33745;-65
2023/04/30 03:57:26;;;;;;;6.53;3.80;;;;;;;22.77;38.52;99547.84;4273742;33;34071;-63
2023/04/30 03:59:53;;;;;;;8.23;3.72;;;;;;;22.77;38.53;99551.41;4261051;33;34999;-62
2023/04/30 04:02:21;;;;;;;6.18;3.85;;;;;;;22.77;38.55;99543.25;4261011;33;34413;-64
2023/04/30 04:04:50;;;;;;;5.90;3.60;;;;;;;22.78;38.57;99550.34;4272358;33;34305;-66
2023/04/30 04:07:18;;;;;;;6.30;3.55;;;;;;;22.76;38.54;99551.63;4260849;33;34656;-64
2023/04/30 04:09:45;;;;;;;6.37;3.83;;;;;;;22.77;38.50;99561.44;4284551;33;34203;-65
2023/04/30 04:12:13;;;;;;;6.82;3.78;;;;;;;22.76;38.55;99567.97;4273948;33;34687;-65
2023/04/30 04:14:40;;;;;;;8.65;3.92;;;;;;;22.77;38.58;99570.44;4273677;33;34597;-65
2023/04/30 04:17:08;;;;;;;6.22;3.80;;;;;;;22.76;38.66;99576.94;4273704;33;34849;-65
2023/04/30 04:19:45;;;;;;;9.85;4.10;;;;;;;22.76;38.63;99576.94;4273587;33;34554;-65
2023/04/30 04:22:14;;;;;;;6.80;4.03;;;;;;;22.78;38.57;99580.25;4273588;33;34314;-66
2023/04/30 04:24:43;;;;;;;5.97;3.65;;;;;;;22.76;38.56;99584.28;4273655;33;34430;-64
2023/04/30 04:27:11;;;;;;;8.38;3.78;;;;;;;22.75;38.60;99579.88;4273676;33;33832;-66
2023/04/30 04:29:38;;;;;;;11.00;3.92;;;;;;;22.73;38.66;99580.09;4273099;33;34105;-66
2023/04/30 04:32:06;;;;;;;8.02;3.72;;;;;;;22.73;38.63;99582.00;4273058;33;34672;-67
2023/04/30 04:34:34;;;;;;;8.38;4.03;;;;;;;22.73;38.69;99582.00;4273719;33;33445;-68
2023/04/30 04:37:02;;;;;;;7.10;3.80;;;;;;;22.73;38.71;99595.59;4273348;33;33755;-66
2023/04/30 04:39:30;;;;;;;5.72;3.50;;;;;;;22.74;38.69;99598.09;4273186;33;34116;-66
2023/04/30 04:41:57;;;;;;;6.87;4.10;;;;;;;22.74;38.69;99594.53;4273032;33;34341;-65
2023/04/30 04:44:26;;;;;;;7.18;4.10;;;;;;;22.74;38.72;99597.25;4273535;33;34244;-67
2023/04/30 04:46:55;;;;;;;6.43;3.67;;;;;;;22.74;38.70;99606.25;4273329;33;34707;-67
2023/04/30 04:49:23;;;;;;;6.00;3.80;;;;;;;22.73;38.71;99604.59;4273207;33;34610;-63
2023/04/30 04:51:51;;;;;;;7.28;4.12;;;;;;;22.73;38.72;99609.19;4273241;33;34969;-68
2023/04/30 04:54:18;;;;;;;5.45;3.50;;;;;;;22.73;38.74;99611.91;4273206;33;33400;-63
2023/04/30 04:56:46;;;;;;;6.78;3.28;;;;;;;22.73;38.73;99614.63;4275008;33;34759;-65
2023/04/30 04:59:16;;;;;;;5.68;3.45;;;;;;;22.74;38.71;99619.00;4274596;33;34722;-65
2023/04/30 05:01:44;;;;;;;5.10;3.03;;;;;;;22.72;38.73;99621.97;4282015;33;35008;-63
2023/04/30 05:04:12;;;;;;;7.05;3.55;;;;;;;22.74;38.74;99619.00;4289274;33;33751;-67
2023/04/30 05:06:41;;;;;;;7.37;3.67;;;;;;;22.74;38.79;99625.28;4278623;33;34088;-65
2023/04/30 05:09:09;;;;;;;6.70;3.33;;;;;;;22.74;38.80;99630.72;4274842;33;34190;-67
2023/04/30 05:11:37;;;;;;;6.12;3.65;;;;;;;22.75;38.79;99631.56;4286319;33;34109;-65
2023/04/30 05:14:04;;;;;;;8.73;3.33;;;;;;;22.74;38.81;99633.44;4289280;33;34073;-68
2023/04/30 05:16:32;;;;;;;5.40;3.25;;;;;;;22.74;38.79;99633.44;4289213;33;34836;-61
2023/04/30 05:19:00;;;;;;;6.07;3.40;;;;;;;22.75;38.77;99637.00;4289291;33;33953;-65
2023/04/30 05:21:28;;;;;;;5.95;3.60;;;;;;;22.74;38.75;99640.78;4275117;33;34400;-61
2023/04/30 05:23:56;;;;;;;5.12;3.12;;;;;;;22.74;38.66;99641.59;4274910;33;33661;-66
2023/04/30 05:26:24;;;;;;;6.12;3.20;;;;;;;22.75;38.66;99647.88;4274989;33;34677;-63
2023/04/30 05:28:51;;;;;;;6.35;3.45;;;;;;;22.75;38.65;99645.97;4274628;33;34941;-62
2023/04/30 05:31:19;;;;;;;5.70;3.30;;;;;;;22.76;38.62;99655.00;4274678;33;34931;-61
2023/04/30 05:33:47;;;;;;;9.82;3.50;;;;;;;22.76;38.63;99650.37;4272450;33;86447;-61
2023/04/30 05:36:15;;;;;;;5.85;3.17;;;;;;;22.77;38.61;99651.22;4279344;33;34702;-65
2023/04/30 05:38:42;;;;;;;8.75;3.90;;;;;;;22.76;38.62;99661.25;4274900;33;34232;-61
2023/04/30 05:41:11;;;;;;;4.93;3.15;;;;;;;22.76;38.63;99661.25;4274687;33;34351;-61
2023/04/30 05:43:38;;;;;;;6.07;3.40;;;;;;;22.75;38.64;99659.56;4273012;33;33275;-60
2023/04/30 05:46:06;;;;;;;5.37;2.97;;;;;;;22.76;38.63;99660.44;4274856;33;34179;-55
2023/04/30 05:48:34;;;;;;;6.50;3.53;;;;;;;22.76;38.64;99665.87;4279125;33;34051;-64
2023/04/30 05:51:01;;;;;;;7.25;3.30;;;;;;;22.76;38.68;99671.31;4273702;33;34066;-61
2023/04/30 05:53:29;;;;;;;6.43;3.35;;;;;;;22.76;38.68;99665.87;4284303;33;33680;-63
2023/04/30 05:55:57;;;;;;;7.65;3.12;;;;;;;22.77;38.68;99667.53;4284991;33;33764;-65
2023/04/30 05:58:24;;;;;;;7.12;3.72;;;;;;;22.77;38.62;99667.53;4283557;33;34984;-65
2023/04/30 06:00:52;;;;;;;7.68;3.60;;;;;;;22.77;38.55;99662.09;4275898;33;34077;-66
2023/04/30 06:03:20;;;;;;;5.68;3.65;;;;;;;22.77;38.56;99662.09;4277768;33;34135;-63
2023/04/30 06:05:47;;;;;;;6.18;3.20;;;;;;;22.78;38.56;99670.03;4288628;33;33961;-65
2023/04/30 06:08:15;;;;;;;5.78;3.12;;;;;;;22.79;38.58;99662.69;4288737;33;34738;-60
2023/04/30 06:10:43;;;;;;;6.95;3.10;;;;;;;22.79;38.62;99670.84;4288424;33;34052;-65
2023/04/30 06:13:11;;;;;;;5.00;3.03;;;;;;;22.79;38.60;99670.84;4275647;33;33679;-63
2023/04/30 06:15:38;;;;;;;5.35;3.33;;;;;;;22.79;38.61;99662.69;4288850;33;34087;-66
2023/04/30 06:18:06;;;;;;;7.55;3.25;;;;;;;22.79;38.60;99668.97;4275989;33;34008;-65
2023/04/30 06:20:33;;;;;;;6.22;3.35;;;;;;;22.80;38.59;99662.47;4288563;33;34835;-66
2023/04/30 06:23:02;;;;;;;5.37;3.40;;;;;;;22.80;38.60;99664.34;4288529;33;34523;-66
2023/04/30 06:25:31;;;;;;;;;;;;;;;22.79;38.61;99666.22;4288842;33;34529;-57
2023/04/30 06:27:58;;;;;;;4.97;2.92;;;;;;;22.88;38.47;99661.34;4285340;33;35123;-67
2023/04/30 06:30:26;;;;;;;6.05;3.45;;;;;;;22.82;38.67;99664.97;4274357;33;34290;-69
2023/04/30 06:32:54;;;;;;;6.70;3.65;;;;;;;22.80;38.88;99658.91;4274306;33;33358;-63
2023/04/30 06:35:22;;;;;;;5.87;3.50;;;;;;;22.80;38.97;99651.59;4274401;33;33597;-64
2023/04/30 06:37:49;;;;;;;7.45;3.95;;;;;;;22.81;39.07;99655.16;4273956;33;33651;-67
2023/04/30 06:40:17;;;;;;;7.12;3.97;;;;;;;22.80;39.11;99657.03;4273958;33;35012;-64
2023/04/30 06:42:44;;;;;;;6.43;3.58;;;;;;;22.81;39.09;99660.59;4274139;33;33737;-67
2023/04/30 06:45:14;;;;;;;10.85;4.12;;;;;;;22.82;39.06;99660.34;4274153;33;33742;-61
2023/04/30 06:47:41;;;;;;;8.48;3.70;;;;;;;22.82;39.21;99663.06;4271063;33;33689;-61
2023/04/30 06:50:09;;;;;;;15.50;4.47;;;;;;;22.83;39.22;99662.00;4277614;33;34195;-66
2023/04/30 06:52:37;;;;;;;14.80;4.22;;;;;;;22.83;39.33;99655.75;4281424;33;33783;-65
2023/04/30 06:55:05;;;;;;;9.50;4.15;;;;;;;22.84;39.34;99662.84;4273827;33;33843;-63
2023/04/30 06:57:33;;;;;;;8.70;4.32;;;;;;;22.85;39.36;99662.62;4274128;33;34838;-61
2023/04/30 07:00:01;;;;;;;12.48;4.43;;;;;;;22.87;39.41;99670.56;4274061;33;35003;-61
2023/04/30 07:02:28;;;;;;;15.27;4.68;;;;;;;22.89;39.47;99665.75;4273885;33;33880;-63
2023/04/30 07:05:15;;;;;;;7.47;3.30;;;;;;;22.90;39.56;99672.87;4275864;33;34841;-64
2023/04/30 07:07:42;;;;;;;7.37;3.72;;;;;;;22.89;39.55;99661.12;4288243;33;34124;-64
2023/04/30 07:10:10;;;;;;;7.22;3.72;;;;;;;22.90;39.59;99673.69;4288462;33;34924;-63
2023/04/30 07:12:37;;;;;;;8.55;3.62;;;;;;;22.92;39.61;99668.03;4288609;33;33793;-61
2023/04/30 07:15:05;;;;;;;11.02;3.67;;;;;;;22.95;39.68;99666.75;4288024;33;34104;-62
2023/04/30 07:17:34;;;;;;;7.70;3.58;;;;;;;22.97;39.72;99668.16;4287964;33;33962;-63
2023/04/30 07:20:03;;;;;;;12.40;4.15;;;;;;;22.96;39.75;99663.78;4287514;33;34359;-62
2023/04/30 07:22:31;;;;;;;11.18;3.67;;;;;;;22.96;39.78;99661.06;4286675;33;33322;-63
2023/04/30 07:24:59;;;;;;;12.02;3.70;;;;;;;22.98;39.79;99664.38;4288375;33;33684;-63
2023/04/30 07:27:27;;;;;;;13.18;3.70;;;;;;;23.00;39.80;99653.28;4288295;33;34934;-62
2023/04/30 07:29:54;;;;;;;10.93;3.50;;;;;;;23.00;39.80;99662.28;4288014;33;34259;-60
2023/04/30 07:32:25;;;;;;;9.75;3.70;;;;;;;23.00;39.80;99651.41;4286885;33;34448;-59
2023/04/30 07:34:53;;;;;;;9.20;3.80;;;;;;;23.00;39.74;99656.84;4274144;33;34834;-63
2023/04/30 07:37:21;;;;;;;9.15;4.00;;;;;;;23.02;39.72;99667.50;4273698;33;33528;-61
2023/04/30 07:39:48;;;;;;;12.77;3.60;;;;;;;23.00;39.67;99665.00;4249255;33;34159;-63
2023/04/30 07:42:15;;;;;;;10.07;3.40;;;;;;;22.99;39.64;99666.06;4274326;33;33695;-59
2023/04/30 07:44:43;;;;;;;7.55;3.70;;;;;;;23.00;39.61;99667.72;4273908;33;34782;-60
2023/04/30 07:47:11;;;;;;;6.28;2.80;;;;;;;22.99;39.51;99671.50;4274046;33;34821;-60
2023/04/30 07:49:38;;;;;;;9.55;3.50;;;;;;;22.99;39.47;99666.06;4274037;33;34343;-62
2023/04/30 07:52:09;;;;;;;6.25;3.28;;;;;;;22.97;39.41;99673.63;4273900;33;33630;-59
2023/04/30 07:54:38;;;;;;;12.70;4.15;;;;;;;22.99;39.37;99673.37;4272675;33;33861;-63
2023/04/30 07:57:06;;;;;;;6.47;3.80;;;;;;;22.99;39.16;99679.69;4273709;33;33993;-60
2023/04/30 07:59:34;;;;;;;7.75;3.62;;;;;;;23.00;39.08;99677.78;4273172;33;33829;-62
2023/04/30 08:02:01;;;;;;;8.60;3.40;;;;;;;22.98;39.16;99672.53;4273877;33;33755;-58
2023/04/30 08:04:29;;;;;;;7.35;3.17;;;;;;;22.99;39.20;99676.09;4273791;33;34904;-62
2023/04/30 08:06:56;;;;;;;4.20;2.47;;;;;;;22.99;39.23;99676.94;4273832;33;33882;-62
2023/04/30 08:09:24;;;;;;;7.15;3.40;;;;;;;23.00;39.22;99678.63;4273704;33;35162;-61
2023/04/30 08:11:52;;;;;;;7.15;3.00;;;;;;;23.02;39.21;99681.09;4273609;33;33413;-64
2023/04/30 08:14:20;;;;;;;13.45;3.37;;;;;;;23.03;39.21;99672.69;4273651;33;33775;-57
2023/04/30 08:16:47;;;;;;;7.25;3.50;;;;;;;23.05;39.19;99667.06;4273629;33;33571;-62
2023/04/30 08:19:16;;;;;;;7.07;3.10;;;;;;;23.04;39.19;99660.78;4273619;33;35086;-63
2023/04/30 08:21:44;;;;;;;7.12;3.12;;;;;;;23.07;39.18;99670.34;4273549;33;33552;-62
2023/04/30 08:24:11;;;;;;;5.80;2.90;;;;;;;23.08;39.18;99675.59;4273529;33;33994;-58
2023/04/30 08:26:39;;;;;;;5.68;2.97;;;;;;;23.09;39.17;99677.25;4273456;33;33894;-61
2023/04/30 08:29:10;;;;;;;7.40;3.00;;;;;;;23.11;39.16;99674.28;4283240;33;33513;-62
2023/04/30 08:31:37;;;;;;;4.62;2.60;;;;;;;23.12;39.17;99673.22;4286741;33;34223;-61
2023/04/30 08:34:05;;;;;;;5.70;2.83;;;;;;;23.13;39.17;99664.84;4274681;33;34009;-62
2023/04/30 08:36:33;;;;;;;5.50;2.72;;;;;;;23.14;39.16;99657.53;4274894;33;34049;-62
2023/04/30 08:39:01;;;;;;;7.03;2.70;;;;;;;23.15;39.17;99660.00;4275043;33;34268;-62
2023/04/30 08:41:31;;;;;;;6.10;2.92;;;;;;;23.16;39.15;99661.66;4274991;33;33599;-62
2023/04/30 08:44:00;;;;;;;5.95;3.08;;;;;;;23.19;39.18;99668.56;4275285;33;33728;-63
2023/04/30 08:46:29;;;;;;;6.18;2.62;;;;;;;23.21;39.16;99662.88;4274961;33;34767;-65
2023/04/30 08:48:57;;;;;;;5.30;2.90;;;;;;;23.21;39.15;99668.31;4261681;33;33975;-61
2023/04/30 08:51:25;;;;;;;5.22;2.60;;;;;;;23.25;39.13;99661.34;4262144;33;34229;-61
2023/04/30 08:53:53;;;;;;;4.85;2.78;;;;;;;23.25;39.15;99664.91;4275161;33;34649;-60
2023/04/30 08:56:21;;;;;;;6.60;2.97;;;;;;;23.26;39.20;99660.28;4274265;33;33937;-62
2023/04/30 08:58:51;;;;;;;;;;;;;;;23.27;39.21;99654.62;4274250;33;35045;-63
2023/04/30 09:01:18;;;;;;;7.53;2.87;;;;;;;23.38;39.04;99662.03;4275586;33;33673;-62
2023/04/30 09:03:46;;;;;;;8.10;2.80;;;;;;;23.33;39.18;99666.50;4274883;33;33654;-61
2023/04/30 09:06:15;;;;;;;6.00;2.75;;;;;;;23.31;39.27;99663.16;4274488;33;34142;-61
2023/04/30 09:08:47;;;;;;;7.82;2.92;;;;;;;23.32;39.28;99659.41;4272821;33;34546;-62
2023/04/30 09:11:27;;;;;;;4.90;2.67;;;;;;;23.32;39.28;99662.12;4273207;33;34782;-61
2023/04/30 09:13:59;;;;;;;7.90;3.30;;;;;;;23.33;39.23;99655.59;4275671;33;33520;-60
2023/04/30 09:16:46;;;;;;;8.68;3.25;;;;;;;23.31;39.23;99658.53;4275942;33;33991;-62
2023/04/30 09:19:26;;;;;;;5.00;2.60;;;;;;;23.33;39.19;99656.44;4284238;33;35068;-62
2023/04/30 09:21:54;;;;;;;;;;;;;;;23.34;39.17;99662.72;4262202;33;34516;-64
2023/04/30 09:24:22;;;;;;;5.28;3.12;;;;;;;23.40;39.00;99664.50;4275033;33;34140;-62
2023/04/30 09:26:49;;;;;;;5.20;2.87;;;;;;;23.34;39.08;99662.72;4346864;27;34139;-65
2023/04/30 09:29:17;;;;;;;4.70;2.83;;;;;;;23.32;39.11;99664.84;4326790;33;34908;-61
2023/04/30 09:31:45;;;;;;;6.78;3.03;;;;;;;23.32;39.10;99653.94;4318196;33;33792;-61
2023/04/30 09:34:14;;;;;;;7.28;2.90;;;;;;;23.32;39.14;99651.22;4318086;33;33947;-62
2023/04/30 09:36:54;;;;;;;6.97;2.70;;;;;;;23.32;39.14;99651.22;4318342;33;33843;-59
2023/04/30 09:39:21;;;;;;;5.97;3.08;;;;;;;23.33;39.16;99648.25;4317800;33;35114;-62
2023/04/30 09:41:50;;;;;;;6.10;2.50;;;;;;;23.32;39.16;99640.34;4304993;33;33709;-60
2023/04/30 09:44:27;;;;;;;6.47;3.03;;;;;;;23.31;39.17;99644.94;4318230;33;34902;-61
2023/04/30 09:46:56;;;;;;;5.78;2.83;;;;;;;23.33;39.15;99645.53;4304904;33;33705;-62
2023/04/30 09:49:24;;;;;;;6.37;3.05;;;;;;;23.31;39.16;99639.47;4317857;33;33894;-62
2023/04/30 09:51:53;;;;;;;10.13;2.87;;;;;;;23.32;39.15;99643.06;4318001;33;33940;-62
2023/04/30 09:54:26;;;;;;;5.57;2.62;;;;;;;23.32;39.14;99640.34;4305023;33;33962;-64
2023/04/30 09:56:57;;;;;;;6.22;2.97;;;;;;;23.32;39.13;99646.59;4304883;33;34751;-61
2023/04/30 09:59:31;;;;;;;7.62;2.75;;;;;;;23.31;39.12;99653.09;4318260;33;34930;-60
2023/04/30 10:02:00;;;;;;;6.25;2.95;;;;;;;23.31;39.12;99644.94;4317758;33;33735;-62
2023/04/30 10:04:35;;;;;;;5.57;2.85;;;;;;;23.31;39.10;99653.09;4318121;33;34942;-64
2023/04/30 10:07:21;;;;;;;5.53;3.10;;;;;;;23.32;39.10;99640.34;4328936;33;34816;-63
2023/04/30 10:09:54;;;;;;;7.20;3.22;;;;;;;23.33;39.05;99639.28;4316973;33;34209;-63
2023/04/30 10:12:28;;;;;;;7.95;3.08;;;;;;;23.32;39.07;99640.34;4317519;33;33548;-60
2023/04/30 10:14:58;;;;;;;8.45;2.92;;;;;;;23.31;39.08;99634.03;4318314;33;33882;-62
2023/04/30 10:17:27;;;;;;;6.80;2.85;;;;;;;23.31;39.07;99641.38;4328625;33;33578;-61
2023/04/30 10:19:56;;;;;;;6.55;2.47;;;;;;;23.30;39.04;99631.56;4328766;33;35003;-63
2023/04/30 10:22:24;;;;;;;6.28;2.58;;;;;;;23.30;39.04;99623.38;4328410;33;34374;-61
2023/04/30 10:24:52;;;;;;;7.30;2.90;;;;;;;23.32;38.98;99621.28;4317807;33;34802;-61
2023/04/30 10:27:20;;;;;;;7.10;2.40;;;;;;;23.31;38.95;99619.59;4317877;33;34332;-61
2023/04/30 10:29:48;;;;;;;5.37;2.62;;;;;;;23.31;38.87;99627.75;4317777;33;34935;-62
2023/04/30 10:32:15;;;;;;;4.97;2.67;;;;;;;23.30;38.83;99623.38;4316663;33;34729;-60
2023/04/30 10:35:06;;;;;;;10.15;2.87;;;;;;;23.29;38.73;99628.00;4304729;33;34650;-63
2023/04/30 10:37:37;;;;;;;7.10;2.58;;;;;;;23.29;38.63;99628.00;4317626;33;34524;-62
2023/04/30 10:40:07;;;;;;;5.32;2.87;;;;;;;23.28;38.58;99625.53;4317930;33;34126;-65
2023/04/30 10:42:35;;;;;;;6.60;2.90;;;;;;;23.28;38.52;99617.34;4317421;33;33691;-62
2023/04/30 10:45:03;;;;;;;5.62;2.58;;;;;;;23.28;38.45;99630.97;4317868;33;34746;-62
2023/04/30 10:47:31;;;;;;;3.90;2.12;;;;;;;23.28;38.41;99611.91;4316693;33;33903;-62
2023/04/30 10:50:08;;;;;;;6.45;2.33;;;;;;;23.28;38.32;99598.31;4317555;33;34180;-60
2023/04/30 10:52:36;;;;;;;5.50;2.70;;;;;;;23.29;38.25;99608.12;4316524;33;34708;-61
2023/04/30 10:55:06;;;;;;;4.15;2.05;;;;;;;23.27;38.22;99629.28;4304117;33;34797;-61
2023/04/30 10:57:41;;;;;;;4.12;2.45;;;;;;;23.27;38.16;99613.81;4318035;33;33653;-63
2023/04/30 11:00:09;;;;;;;4.45;2.62;;;;;;;23.28;38.08;99606.47;4317803;33;34228;-61
2023/04/30 11:02:44;;;;;;;5.50;2.30;;;;;;;23.27;38.07;99596.59;4303995;33;32129;-61
2023/04/30 11:05:16;;;;;;;3.42;2.17;;;;;;;23.27;38.00;99610.22;4317772;33;34771;-65
2023/04/30 11:07:51;;;;;;;4.12;2.22;;;;;;;23.26;38.00;99586.78;4317521;33;34604;-62
2023/04/30 11:10:23;;;;;;;5.12;2.25;;;;;;;23.27;37.93;99585.72;4317787;33;33950;-62
2023/04/30 11:12:52;;;;;;;3.75;2.17;;;;;;;23.25;37.91;99613.19;4328090;33;34048;-61
2023/04/30 11:15:24;;;;;;;3.63;2.00;;;;;;;23.25;37.87;99599.56;4304346;33;33997;-62
2023/04/30 11:17:55;;;;;;;4.00;2.42;;;;;;;23.27;37.84;99602.06;4317507;33;34991;-62
2023/04/30 11:20:24;;;;;;;6.35;2.97;;;;;;;23.25;37.86;99599.56;4317314;33;34702;-61
2023/04/30 11:23:11;;;;;;;10.82;4.80;;;;;;;23.27;37.81;99602.91;4317521;33;33827;-60
2023/04/30 11:25:45;;;;;;;17.67;6.35;;;;;;;23.27;37.76;99593.88;4317031;33;34687;-60
2023/04/30 11:28:17;;;;;;;19.25;5.55;;;;;;;23.26;37.78;99590.34;4317813;33;33736;-64
2023/04/30 11:30:51;;;;;;;16.33;6.40;;;;;;;23.25;37.77;99587.84;4304752;33;34265;-60
2023/04/30 11:33:19;;;;;;;19.42;6.93;;;;;;;23.27;37.76;99621.97;4316995;33;34572;-60
2023/04/30 11:35:54;;;;;;;20.23;6.40;;;;;;;23.26;37.74;99622.19;4317709;33;33985;-62
2023/04/30 11:38:29;;;;;;;14.15;5.25;;;;;;;23.26;37.71;99595.78;4327931;33;33606;-62
2023/04/30 11:40:57;;;;;;;11.73;4.70;;;;;;;23.27;37.67;99591.16;4315915;33;34883;-64
2023/04/30 11:43:25;;;;;;;11.63;3.95;;;;;;;23.26;37.66;99587.63;4332030;33;33829;-63